This is the latest recevied weather packets stored in our database for station/object OE6ATD-13. If no packets are shown the sender has not sent any weather packets the latest 10 day(s).
| Time | Temp. | Humidity | Pressure | Rain* | Wind** | Luminosity | Snow |
|---|---|---|---|---|---|---|---|
| 1777497323 | 8.89° C | 42% | 1025.1 hPa | 0 mm | - | 0 W/m² | - |
| 1777496718 | 8.33° C | 51% | 1025.1 hPa | 0 mm | - | 0 W/m² | - |
| 1777496130 | 6.67° C | 78% | 1024.8 hPa | 0 mm | - | 0 W/m² | - |
| 1777495525 | 5.56° C | 84% | 1024.5 hPa | 0 mm | - | 0 W/m² | - |
| 1777494921 | 6.11° C | 84% | 1024.3 hPa | 0 mm | - | 0 W/m² | - |
| 1777494317 | 6.11° C | 85% | 1024.1 hPa | 0 mm | - | 0 W/m² | - |
| 1777493727 | 6.11° C | 86% | 1023.9 hPa | 0 mm | - | 0 W/m² | - |
| 1777493123 | 5.56° C | 85% | 1023.6 hPa | 0 mm | - | 0 W/m² | - |
| 1777492519 | 5.56° C | 83% | 1023.2 hPa | 0 mm | - | 0 W/m² | - |
| 1777491930 | 6.11° C | 83% | 1023 hPa | 0 mm | - | 0 W/m² | - |
| 1777491326 | 6.11° C | 82% | 1023 hPa | 0 mm | - | 0 W/m² | - |
| 1777490721 | 6.67° C | 81% | 1022.8 hPa | 0 mm | - | 0 W/m² | - |
| 1777490118 | 6.67° C | 79% | 1022.7 hPa | 0 mm | - | 0 W/m² | - |
| 1777489528 | 7.22° C | 73% | 1022.5 hPa | 0 mm | - | 0 W/m² | - |
| 1777488924 | 7.78° C | 70% | 1022.4 hPa | 0 mm | - | 0 W/m² | - |
| 1777488319 | 7.78° C | 69% | 1022.2 hPa | 0 mm | - | 0 W/m² | - |
| 1777487722 | 8.33° C | 67% | 1022.1 hPa | 0 mm | - | 0 W/m² | - |
| 1777487118 | 8.89° C | 65% | 1021.9 hPa | 0 mm | - | 0 W/m² | - |
| 1777486529 | 9.44° C | 61% | 1021.8 hPa | 0 mm | - | 0 W/m² | - |
| 1777485924 | 10° C | 60% | 1021.7 hPa | 0 mm | - | 0 W/m² | - |
| 1777485320 | 10.56° C | 57% | 1021.6 hPa | 0 mm | - | 4 W/m² | - |
| 1777484716 | 11.67° C | 54% | 1021.4 hPa | 0 mm | - | 9 W/m² | - |
| 1777484127 | 12.78° C | 50% | 1021.4 hPa | 0 mm | - | 27 W/m² | - |
| 1777483523 | 13.33° C | 50% | 1021.4 hPa | 0 mm | - | 49 W/m² | - |
| 1777482919 | 13.33° C | 49% | 1021.4 hPa | 0 mm | - | 67 W/m² | - |
* Rain latest hour (hover to see other rain measurements)
** Current wind speed in m/s (hover to see current wind gust speed)